Time;durP1;ratioP1;P1;durP2;ratioP2;P2;SDS_P1;SDS_P2;PMS_P1;PMS_P2;Temp;Humidity;BMP_temperature;BMP_pressure;BME280_temperature;BME280_humidity;BME280_pressure;Samples;Min_cycle;Max_cycle;Signal;HPM_P1;HPM_P2
2023/12/31 00:00:34;;;;;;;10.57;8.43;;;9.30;99.90;;;;;;5019625;28;20262;-69
2023/12/31 00:03:00;;;;;;;14.23;8.70;;;9.30;99.90;;;;;;5017765;28;20499;-69
2023/12/31 00:05:26;;;;;;;12.63;7.63;;;9.30;99.90;;;;;;5015485;28;20431;-69
2023/12/31 00:07:52;;;;;;;9.87;7.10;;;9.30;99.90;;;;;;5016006;28;20189;-69
2023/12/31 00:10:18;;;;;;;8.77;7.13;;;9.20;99.90;;;;;;5013476;28;21526;-69
2023/12/31 00:12:44;;;;;;;10.33;7.27;;;9.20;99.90;;;;;;5014590;28;20770;-70
2023/12/31 00:15:09;;;;;;;10.30;7.33;;;9.20;99.90;;;;;;5014013;28;20188;-70
2023/12/31 00:17:35;;;;;;;11.33;7.93;;;9.10;99.90;;;;;;5017710;28;20904;-70
2023/12/31 00:20:02;;;;;;;11.63;7.97;;;9.10;99.90;;;;;;5010211;28;20182;-69
2023/12/31 00:22:27;;;;;;;8.30;6.67;;;9.10;99.90;;;;;;5016929;28;20189;-69
2023/12/31 00:24:54;;;;;;;9.10;6.73;;;9.10;99.90;;;;;;5015776;28;20728;-69
2023/12/31 00:27:20;;;;;;;11.17;7.53;;;9.10;99.90;;;;;;5011294;28;20907;-69
2023/12/31 00:29:46;;;;;;;8.90;7.37;;;9.10;99.90;;;;;;5010711;28;20442;-71
2023/12/31 00:32:11;;;;;;;8.00;6.10;;;9.10;99.90;;;;;;5013551;28;20432;-70
2023/12/31 00:34:37;;;;;;;11.30;6.67;;;9.10;99.90;;;;;;5014564;28;20271;-69
2023/12/31 00:37:06;;;;;;;7.70;6.10;;;9.10;99.90;;;;;;5014615;28;20222;-70
2023/12/31 00:39:32;;;;;;;9.50;6.87;;;9.10;99.90;;;;;;5014728;28;20189;-70
2023/12/31 00:41:58;;;;;;;8.43;6.10;;;9.10;99.90;;;;;;5022302;28;20430;-70
2023/12/31 00:44:23;;;;;;;8.10;6.13;;;9.00;99.90;;;;;;5015752;28;20208;-69
2023/12/31 00:46:50;;;;;;;7.27;5.50;;;9.10;99.90;;;;;;5012270;28;20193;-69
2023/12/31 00:49:16;;;;;;;7.40;4.83;;;9.10;99.90;;;;;;5011165;28;20639;-69
2023/12/31 00:51:41;;;;;;;8.10;5.10;;;9.00;99.90;;;;;;5010898;28;20513;-69
2023/12/31 00:54:07;;;;;;;7.70;5.40;;;9.00;99.90;;;;;;5016149;28;20649;-69
2023/12/31 00:56:32;;;;;;;8.00;4.60;;;9.00;99.90;;;;;;5018490;28;20184;-70
2023/12/31 00:58:58;;;;;;;9.20;5.47;;;9.00;99.90;;;;;;5018937;28;20689;-69
2023/12/31 01:01:24;;;;;;;5.77;4.60;;;9.00;99.90;;;;;;5010870;28;20578;-69
2023/12/31 01:03:50;;;;;;;6.60;4.60;;;9.00;99.90;;;;;;5026407;28;20219;-68
2023/12/31 01:06:16;;;;;;;5.47;4.23;;;9.00;99.90;;;;;;5015364;28;20226;-68
2023/12/31 01:08:42;;;;;;;6.27;3.97;;;9.00;99.90;;;;;;5013596;28;20439;-68
2023/12/31 01:11:07;;;;;;;6.30;4.53;;;8.90;99.90;;;;;;5015715;28;20804;-68
2023/12/31 01:13:33;;;;;;;8.10;4.60;;;9.00;99.90;;;;;;5011900;28;20790;-68
2023/12/31 01:15:58;;;;;;;6.67;4.10;;;8.90;99.90;;;;;;5016813;28;20666;-67
2023/12/31 01:18:24;;;;;;;5.50;4.27;;;8.90;99.90;;;;;;5010930;28;20188;-68
2023/12/31 01:20:49;;;;;;;6.00;4.67;;;8.90;99.90;;;;;;5012166;28;20188;-68
2023/12/31 01:23:15;;;;;;;6.03;4.33;;;8.90;99.90;;;;;;5017102;28;20212;-68
2023/12/31 01:25:42;;;;;;;5.40;3.63;;;8.90;99.90;;;;;;5016722;28;20192;-68
2023/12/31 01:28:07;;;;;;;5.60;4.07;;;9.00;99.90;;;;;;5012301;28;20662;-69
2023/12/31 01:30:33;;;;;;;4.83;3.60;;;8.90;99.90;;;;;;5012096;28;20459;-68
2023/12/31 01:32:59;;;;;;;5.23;3.40;;;8.90;99.90;;;;;;5012282;28;20201;-68
2023/12/31 01:35:24;;;;;;;5.03;3.77;;;8.90;99.90;;;;;;5018982;28;20189;-68
2023/12/31 01:37:50;;;;;;;4.67;3.27;;;8.90;99.90;;;;;;5013252;28;20520;-69
2023/12/31 01:40:15;;;;;;;5.90;4.00;;;8.90;99.90;;;;;;5013961;28;20588;-68
2023/12/31 01:42:43;;;;;;;5.70;3.70;;;8.90;99.90;;;;;;5017838;28;20182;-68
2023/12/31 01:45:09;;;;;;;5.00;3.37;;;8.90;99.90;;;;;;5011486;28;20546;-68
2023/12/31 01:47:36;;;;;;;6.00;3.40;;;8.90;99.90;;;;;;5011503;28;20432;-68
2023/12/31 01:50:04;;;;;;;4.80;3.53;;;8.90;99.90;;;;;;5012732;28;20679;-68
2023/12/31 01:52:31;;;;;;;5.47;3.50;;;8.90;99.90;;;;;;5009399;28;20467;-69
2023/12/31 01:55:00;;;;;;;5.00;3.63;;;8.90;99.90;;;;;;5012773;28;20464;-69
2023/12/31 01:57:29;;;;;;;8.80;3.03;;;8.90;99.90;;;;;;5014676;28;20466;-69
2023/12/31 01:59:56;;;;;;;6.70;3.30;;;8.90;99.90;;;;;;5011291;28;20528;-68
2023/12/31 02:02:25;;;;;;;4.03;3.00;;;8.90;99.90;;;;;;5013468;28;20447;-68
2023/12/31 02:04:51;;;;;;;4.40;3.07;;;8.90;99.90;;;;;;5010738;28;20467;-68
2023/12/31 02:07:17;;;;;;;4.47;3.20;;;8.90;99.90;;;;;;5018945;28;20435;-68
2023/12/31 02:09:43;;;;;;;6.63;3.27;;;8.90;99.90;;;;;;5013176;28;20447;-68
2023/12/31 02:12:09;;;;;;;4.83;2.87;;;9.00;99.90;;;;;;5008904;28;20486;-68
2023/12/31 02:14:35;;;;;;;11.80;3.43;;;9.00;99.90;;;;;;5014947;28;20456;-68
2023/12/31 02:17:00;;;;;;;4.80;3.07;;;9.00;99.90;;;;;;5017352;28;20448;-68
2023/12/31 02:19:26;;;;;;;4.60;2.83;;;9.00;99.90;;;;;;5012656;28;20188;-68
2023/12/31 02:21:51;;;;;;;4.43;3.37;;;9.00;99.90;;;;;;5016792;28;20264;-69
2023/12/31 02:24:20;;;;;;;4.87;2.80;;;9.00;99.90;;;;;;5017705;28;20216;-69
2023/12/31 02:26:46;;;;;;;4.07;2.80;;;9.10;99.90;;;;;;5009224;28;20256;-68
2023/12/31 02:29:11;;;;;;;4.63;3.00;;;9.00;99.90;;;;;;5012731;28;20446;-69
2023/12/31 02:31:37;;;;;;;4.70;3.33;;;9.10;99.90;;;;;;5013746;28;20217;-68
2023/12/31 02:34:03;;;;;;;4.00;2.93;;;9.10;99.90;;;;;;5010388;28;20203;-68
2023/12/31 02:36:28;;;;;;;4.90;3.03;;;9.10;99.90;;;;;;5015234;28;20180;-68
2023/12/31 02:38:54;;;;;;;5.00;2.43;;;9.10;99.90;;;;;;5013702;28;20180;-68
2023/12/31 02:41:20;;;;;;;3.60;2.53;;;9.10;99.90;;;;;;5015617;28;20238;-68
2023/12/31 02:43:45;;;;;;;4.27;2.43;;;9.20;99.90;;;;;;5015934;28;20287;-68
2023/12/31 02:46:11;;;;;;;4.90;3.23;;;9.20;99.90;;;;;;5015637;28;20228;-68
2023/12/31 02:48:36;;;;;;;4.47;2.70;;;9.20;99.90;;;;;;5015782;28;20272;-68
2023/12/31 02:51:02;;;;;;;6.53;3.47;;;9.30;99.90;;;;;;5013366;28;20278;-68
2023/12/31 02:53:28;;;;;;;6.67;2.73;;;9.30;99.90;;;;;;5016116;28;20212;-69
2023/12/31 02:55:53;;;;;;;5.30;2.90;;;9.30;99.90;;;;;;5010491;28;20189;-69
2023/12/31 02:58:19;;;;;;;6.47;2.90;;;9.30;99.90;;;;;;5012814;28;20194;-69
2023/12/31 03:00:44;;;;;;;3.80;2.77;;;9.30;99.90;;;;;;5015282;28;20187;-69
2023/12/31 03:03:10;;;;;;;3.50;2.57;;;9.40;99.90;;;;;;5012641;28;20331;-69
2023/12/31 03:05:35;;;;;;;5.13;3.03;;;9.40;99.90;;;;;;5009020;28;20193;-69
2023/12/31 03:08:01;;;;;;;4.30;3.17;;;9.40;99.90;;;;;;5014455;28;20205;-69
2023/12/31 03:10:27;;;;;;;3.53;2.97;;;9.40;99.90;;;;;;5013626;28;20205;-69
2023/12/31 03:12:53;;;;;;;5.57;3.83;;;9.40;99.90;;;;;;5014512;28;20642;-69
2023/12/31 03:15:20;;;;;;;5.67;3.57;;;9.40;99.90;;;;;;5015217;28;20443;-69
2023/12/31 03:17:45;;;;;;;5.10;3.80;;;9.30;99.90;;;;;;5015571;28;20227;-69
2023/12/31 03:20:11;;;;;;;5.57;4.17;;;9.40;99.90;;;;;;5012058;28;21300;-69
2023/12/31 03:22:37;;;;;;;6.30;4.50;;;9.40;99.90;;;;;;5013494;28;20275;-69
2023/12/31 03:25:03;;;;;;;6.43;4.20;;;9.30;99.90;;;;;;5018182;28;20220;-69
2023/12/31 03:27:28;;;;;;;7.00;4.27;;;9.30;99.90;;;;;;5015070;28;20268;-69
2023/12/31 03:29:54;;;;;;;5.30;4.10;;;9.30;99.90;;;;;;5015097;28;20443;-69
2023/12/31 03:32:19;;;;;;;7.80;4.87;;;9.30;99.90;;;;;;5012497;28;20216;-69
2023/12/31 03:34:45;;;;;;;7.53;5.07;;;9.30;99.90;;;;;;5006559;28;20216;-69
2023/12/31 03:37:10;;;;;;;5.07;3.83;;;9.20;99.90;;;;;;5016941;28;20185;-68
2023/12/31 03:39:36;;;;;;;6.30;4.80;;;9.20;99.90;;;;;;5024644;28;20722;-68
2023/12/31 03:42:01;;;;;;;6.93;4.70;;;9.20;99.90;;;;;;5011558;28;20200;-70
2023/12/31 03:44:27;;;;;;;8.90;4.97;;;9.20;99.90;;;;;;5011694;28;20650;-69
2023/12/31 03:46:53;;;;;;;9.33;4.80;;;9.10;99.90;;;;;;5012521;28;20271;-69
2023/12/31 03:49:18;;;;;;;5.73;4.53;;;9.10;99.90;;;;;;5016044;28;20212;-68
2023/12/31 03:51:44;;;;;;;6.73;4.90;;;9.10;99.90;;;;;;5012796;28;20208;-69
2023/12/31 03:54:09;;;;;;;7.37;4.90;;;9.10;99.90;;;;;;5010239;28;20728;-68
2023/12/31 03:56:35;;;;;;;6.90;4.77;;;9.10;99.90;;;;;;5013275;28;20542;-69
2023/12/31 03:59:00;;;;;;;6.93;4.80;;;9.10;99.90;;;;;;5011119;28;20543;-68
2023/12/31 04:01:26;;;;;;;9.17;5.00;;;9.00;99.90;;;;;;5011544;28;20220;-69
2023/12/31 04:03:52;;;;;;;11.63;4.97;;;9.00;99.90;;;;;;5012955;28;20663;-69
2023/12/31 04:06:17;;;;;;;7.93;4.73;;;9.10;99.90;;;;;;5017896;28;20188;-69
2023/12/31 04:08:43;;;;;;;5.90;4.53;;;9.00;99.90;;;;;;5013072;28;20291;-69
2023/12/31 04:11:08;;;;;;;7.00;5.50;;;9.00;99.90;;;;;;5016551;28;20261;-69
2023/12/31 04:13:34;;;;;;;6.30;4.50;;;9.00;99.90;;;;;;5013719;28;20204;-69
2023/12/31 04:15:59;;;;;;;6.67;4.20;;;9.00;99.90;;;;;;5022211;28;20185;-69
2023/12/31 04:18:25;;;;;;;6.53;4.47;;;9.10;99.90;;;;;;5016165;28;20189;-69
2023/12/31 04:20:51;;;;;;;5.70;4.20;;;9.10;99.90;;;;;;5014819;28;20193;-69
2023/12/31 04:23:16;;;;;;;7.23;4.40;;;9.10;99.90;;;;;;5013710;28;20315;-69
2023/12/31 04:25:42;;;;;;;6.13;4.37;;;9.10;99.90;;;;;;5019969;28;20501;-69
2023/12/31 04:28:07;;;;;;;6.10;4.70;;;9.10;99.90;;;;;;5014287;28;20195;-70
2023/12/31 04:30:33;;;;;;;6.73;4.20;;;9.10;99.90;;;;;;5011048;28;20666;-69
2023/12/31 04:32:58;;;;;;;6.37;4.73;;;9.10;99.90;;;;;;5013630;28;21200;-69
2023/12/31 04:35:24;;;;;;;7.50;5.17;;;9.20;99.90;;;;;;5018372;28;20227;-69
2023/12/31 04:37:50;;;;;;;5.77;4.50;;;9.10;99.90;;;;;;5011188;28;20697;-70
2023/12/31 04:40:15;;;;;;;6.37;4.37;;;9.10;99.90;;;;;;5010248;28;20195;-69
2023/12/31 04:42:41;;;;;;;5.77;4.80;;;9.10;99.90;;;;;;5011979;28;20219;-68
2023/12/31 04:45:09;;;;;;;9.43;5.60;;;9.20;99.90;;;;;;5013131;28;20223;-68
2023/12/31 04:47:35;;;;;;;9.63;5.77;;;9.20;99.90;;;;;;5010998;28;20238;-68
2023/12/31 04:50:01;;;;;;;8.00;5.27;;;9.20;99.90;;;;;;5017328;28;20435;-68
2023/12/31 04:52:26;;;;;;;8.50;5.53;;;9.20;99.90;;;;;;5014310;28;21484;-68
2023/12/31 04:54:52;;;;;;;7.80;6.00;;;9.20;99.90;;;;;;5011435;28;20193;-68
2023/12/31 04:57:18;;;;;;;9.50;6.10;;;9.20;99.90;;;;;;5010249;28;20650;-68
2023/12/31 04:59:43;;;;;;;8.33;5.20;;;9.10;99.90;;;;;;5016097;28;20192;-68
2023/12/31 05:02:09;;;;;;;9.07;5.13;;;9.20;99.90;;;;;;5015839;28;20247;-68
2023/12/31 05:04:34;;;;;;;6.97;5.70;;;9.10;99.90;;;;;;5012995;28;20197;-68
2023/12/31 05:07:00;;;;;;;10.70;6.53;;;9.10;99.90;;;;;;5017518;28;20181;-68
2023/12/31 05:09:25;;;;;;;8.43;5.93;;;9.10;99.90;;;;;;5018076;28;20197;-68
2023/12/31 05:11:51;;;;;;;5.93;4.67;;;9.10;99.90;;;;;;5019430;28;20579;-68
2023/12/31 05:14:16;;;;;;;9.10;5.60;;;9.10;99.90;;;;;;5013064;28;20630;-69
2023/12/31 05:16:42;;;;;;;6.13;4.70;;;9.10;99.90;;;;;;5017601;28;20189;-69
2023/12/31 05:19:08;;;;;;;7.07;5.03;;;9.10;99.90;;;;;;5017009;28;20242;-69
2023/12/31 05:21:34;;;;;;;7.27;5.10;;;9.10;99.90;;;;;;5013804;28;20208;-68
2023/12/31 05:24:00;;;;;;;6.83;5.40;;;9.10;99.90;;;;;;5009099;28;20260;-69
2023/12/31 05:26:26;;;;;;;8.00;5.57;;;9.00;99.90;;;;;;5016181;28;20776;-68
2023/12/31 05:28:52;;;;;;;6.70;4.70;;;9.00;99.90;;;;;;5018582;28;20422;-68
2023/12/31 05:31:18;;;;;;;7.27;4.93;;;9.00;99.90;;;;;;5015567;28;21336;-68
2023/12/31 05:33:44;;;;;;;6.70;5.17;;;8.90;99.90;;;;;;5014169;28;20549;-69
2023/12/31 05:36:11;;;;;;;7.53;4.20;;;8.90;99.90;;;;;;5016780;28;20235;-68
2023/12/31 05:38:36;;;;;;;5.57;4.47;;;8.90;99.90;;;;;;5018508;28;20422;-68
2023/12/31 05:41:02;;;;;;;5.13;4.23;;;8.90;99.90;;;;;;5018099;28;21212;-68
2023/12/31 05:43:28;;;;;;;6.60;4.30;;;8.90;99.90;;;;;;5015283;28;20220;-68
2023/12/31 05:45:53;;;;;;;6.70;4.27;;;8.80;99.90;;;;;;5011650;28;20320;-68
2023/12/31 05:48:19;;;;;;;5.23;4.30;;;8.80;99.90;;;;;;5018169;28;20188;-69
2023/12/31 05:50:46;;;;;;;5.60;4.10;;;8.70;99.90;;;;;;5012499;28;20220;-68
2023/12/31 05:53:12;;;;;;;5.73;4.33;;;8.60;99.90;;;;;;5015912;28;20234;-68
2023/12/31 05:55:37;;;;;;;5.87;4.60;;;8.60;99.90;;;;;;5012426;28;20471;-69
2023/12/31 05:58:03;;;;;;;7.13;4.97;;;8.60;99.90;;;;;;5017604;28;20224;-68
2023/12/31 06:00:28;;;;;;;5.53;4.17;;;8.60;99.90;;;;;;5022439;28;21048;-68
2023/12/31 06:02:54;;;;;;;6.50;4.80;;;8.60;99.90;;;;;;5018045;28;20642;-68
2023/12/31 06:05:19;;;;;;;5.97;4.13;;;8.50;99.90;;;;;;5014218;28;20234;-68
2023/12/31 06:07:45;;;;;;;5.60;4.43;;;8.50;99.90;;;;;;5021338;28;20192;-68
2023/12/31 06:10:11;;;;;;;9.43;4.20;;;8.50;99.90;;;;;;5013599;28;20702;-68
2023/12/31 06:12:36;;;;;;;6.00;4.00;;;8.40;99.90;;;;;;5016631;28;20229;-68
2023/12/31 06:15:07;;;;;;;4.57;3.50;;;8.50;99.90;;;;;;5016064;28;20232;-68
2023/12/31 06:17:33;;;;;;;5.57;3.20;;;8.40;99.90;;;;;;5012641;28;20189;-68
2023/12/31 06:20:00;;;;;;;5.00;3.30;;;8.40;99.90;;;;;;5011338;28;20454;-69
2023/12/31 06:22:25;;;;;;;4.60;3.00;;;8.30;99.90;;;;;;5010487;28;20412;-69
2023/12/31 06:24:51;;;;;;;23.57;3.90;;;8.30;99.90;;;;;;5016775;28;20480;-69
2023/12/31 06:27:16;;;;;;;5.93;3.20;;;8.30;99.90;;;;;;5013041;28;20184;-69
2023/12/31 06:29:43;;;;;;;4.83;2.80;;;8.20;99.90;;;;;;5012111;28;20619;-68
2023/12/31 06:32:08;;;;;;;3.93;3.07;;;8.30;99.90;;;;;;5015763;28;20216;-69
2023/12/31 06:34:34;;;;;;;4.20;2.57;;;8.30;99.90;;;;;;5018227;28;20439;-69
2023/12/31 06:36:59;;;;;;;4.30;3.10;;;8.30;99.90;;;;;;5018214;28;20671;-69
2023/12/31 06:39:25;;;;;;;4.43;3.13;;;8.30;99.90;;;;;;5011742;28;20179;-69
2023/12/31 06:41:51;;;;;;;6.27;3.23;;;8.30;99.90;;;;;;5015573;28;20660;-70
2023/12/31 06:44:16;;;;;;;5.33;3.07;;;8.30;99.90;;;;;;5017970;28;20206;-69
2023/12/31 06:46:42;;;;;;;4.97;3.47;;;8.30;99.90;;;;;;5011023;28;20181;-69
2023/12/31 06:49:07;;;;;;;4.87;3.10;;;8.30;99.90;;;;;;5014634;28;20653;-69
2023/12/31 06:51:33;;;;;;;5.57;3.00;;;8.30;99.90;;;;;;5015869;28;20269;-69
2023/12/31 06:53:59;;;;;;;4.73;3.50;;;8.30;99.90;;;;;;5011782;28;20205;-69
2023/12/31 06:56:24;;;;;;;5.80;4.10;;;8.30;99.90;;;;;;5017281;28;20181;-69
2023/12/31 06:58:50;;;;;;;6.67;3.40;;;8.30;99.90;;;;;;5011247;28;20188;-69
2023/12/31 07:01:16;;;;;;;4.00;3.27;;;8.40;99.90;;;;;;5008579;28;20189;-70
2023/12/31 07:03:43;;;;;;;6.10;3.60;;;8.40;99.90;;;;;;5013886;28;20201;-68
2023/12/31 07:06:08;;;;;;;4.33;3.67;;;8.40;99.90;;;;;;5015443;28;20596;-68
2023/12/31 07:08:34;;;;;;;5.73;3.10;;;8.50;99.90;;;;;;5015556;28;20455;-69
2023/12/31 07:11:00;;;;;;;5.37;3.63;;;8.50;99.90;;;;;;5017237;28;20215;-69
2023/12/31 07:13:25;;;;;;;7.93;3.57;;;8.60;99.90;;;;;;5013054;28;20450;-68
2023/12/31 07:15:51;;;;;;;6.03;3.53;;;8.70;99.90;;;;;;5017668;28;20658;-68
2023/12/31 07:18:17;;;;;;;6.20;3.90;;;8.70;99.90;;;;;;5016658;28;20251;-68
2023/12/31 07:20:43;;;;;;;5.73;3.43;;;8.80;99.90;;;;;;5018163;28;20602;-68
2023/12/31 07:23:08;;;;;;;4.43;3.60;;;8.80;99.90;;;;;;5013893;28;20526;-68
2023/12/31 07:25:34;;;;;;;5.20;3.40;;;8.90;99.90;;;;;;5013014;28;20211;-68
2023/12/31 07:27:59;;;;;;;4.93;3.60;;;8.90;99.90;;;;;;5012091;28;20185;-68
2023/12/31 07:30:25;;;;;;;4.10;3.50;;;9.00;99.90;;;;;;5012559;28;20227;-69
2023/12/31 07:32:51;;;;;;;4.33;3.30;;;9.10;99.90;;;;;;5013113;28;20224;-68
2023/12/31 07:35:17;;;;;;;4.43;3.53;;;9.10;99.90;;;;;;5012632;28;20571;-69
2023/12/31 07:37:43;;;;;;;6.00;3.80;;;9.00;99.90;;;;;;5014528;28;20450;-69
2023/12/31 07:40:09;;;;;;;4.20;3.63;;;9.10;99.90;;;;;;5016133;28;20453;-69
2023/12/31 07:42:35;;;;;;;6.50;4.07;;;9.10;99.90;;;;;;5010216;28;20184;-69
2023/12/31 07:45:05;;;;;;;5.23;3.70;;;9.20;99.90;;;;;;5013564;28;20943;-69
2023/12/31 07:47:35;;;;;;;4.37;3.20;;;9.20;99.90;;;;;;5005367;28;20412;-69
2023/12/31 07:50:07;;;;;;;5.23;3.60;;;9.20;99.90;;;;;;5017843;28;20416;-69
2023/12/31 07:52:33;;;;;;;5.60;3.60;;;9.30;99.90;;;;;;5016904;28;20443;-69
2023/12/31 07:54:59;;;;;;;4.13;3.13;;;9.30;99.90;;;;;;5008027;28;22921;-69
2023/12/31 07:57:24;;;;;;;7.53;4.00;;;9.30;99.90;;;;;;5016771;28;20471;-69
2023/12/31 07:59:50;;;;;;;5.70;3.60;;;9.30;99.90;;;;;;5014253;28;20477;-69
2023/12/31 08:02:16;;;;;;;6.80;3.83;;;9.30;99.90;;;;;;5013572;28;20192;-69
2023/12/31 08:04:42;;;;;;;5.10;3.37;;;9.30;99.90;;;;;;5014105;28;20691;-69
2023/12/31 08:07:08;;;;;;;7.33;4.20;;;9.30;99.90;;;;;;5018631;28;20264;-69
2023/12/31 08:09:33;;;;;;;5.27;3.90;;;9.30;99.90;;;;;;5018676;28;20539;-68
2023/12/31 08:11:59;;;;;;;7.27;4.50;;;9.30;99.90;;;;;;5015645;28;20271;-68
2023/12/31 08:14:25;;;;;;;5.10;4.13;;;9.30;99.90;;;;;;5011766;28;20624;-69
2023/12/31 08:16:50;;;;;;;5.80;3.90;;;9.30;99.90;;;;;;5027215;28;20203;-69
2023/12/31 08:19:16;;;;;;;5.90;3.97;;;9.40;99.90;;;;;;5010978;28;20718;-69
2023/12/31 08:21:42;;;;;;;7.60;4.30;;;9.40;99.90;;;;;;5019719;28;20594;-69
2023/12/31 08:24:08;;;;;;;5.23;3.67;;;9.40;99.90;;;;;;5013616;28;20242;-69
2023/12/31 08:26:36;;;;;;;5.50;4.10;;;9.40;99.90;;;;;;5018984;28;20514;-69
2023/12/31 08:29:02;;;;;;;7.10;4.23;;;9.50;99.90;;;;;;5011508;28;20306;-69
2023/12/31 08:31:28;;;;;;;6.20;4.30;;;9.60;99.90;;;;;;5020608;28;20474;-69
2023/12/31 08:33:53;;;;;;;8.17;4.67;;;9.60;99.90;;;;;;5018201;28;20432;-69
2023/12/31 08:36:19;;;;;;;6.33;4.77;;;9.60;99.90;;;;;;5019905;28;20203;-69
2023/12/31 08:38:45;;;;;;;5.87;4.40;;;9.60;99.90;;;;;;5019057;28;20227;-69
2023/12/31 08:41:10;;;;;;;8.70;4.33;;;9.70;99.90;;;;;;5020053;28;20287;-69
2023/12/31 08:43:36;;;;;;;5.40;4.30;;;9.70;99.90;;;;;;5019499;28;20213;-69
2023/12/31 08:46:02;;;;;;;6.47;4.60;;;9.80;99.90;;;;;;5014086;28;20200;-69
2023/12/31 08:48:28;;;;;;;6.10;4.80;;;9.80;99.90;;;;;;5020780;28;20583;-69
2023/12/31 08:50:54;;;;;;;6.83;4.87;;;9.80;99.90;;;;;;5015614;28;20477;-69
2023/12/31 08:53:20;;;;;;;6.23;4.90;;;9.90;99.90;;;;;;5017397;28;20196;-69
2023/12/31 08:55:47;;;;;;;6.50;5.23;;;9.90;99.90;;;;;;5014300;28;20991;-68
2023/12/31 08:58:13;;;;;;;5.93;4.53;;;10.00;99.90;;;;;;5017612;28;20183;-69
2023/12/31 09:00:39;;;;;;;8.73;5.73;;;10.00;99.90;;;;;;5020450;28;20554;-69
2023/12/31 09:03:04;;;;;;;8.37;4.70;;;10.10;99.90;;;;;;5018456;28;20208;-69
2023/12/31 09:05:30;;;;;;;6.13;4.50;;;10.10;99.90;;;;;;5020689;28;20272;-69
2023/12/31 09:07:56;;;;;;;8.00;5.10;;;10.10;99.90;;;;;;5019488;28;20525;-69
2023/12/31 09:10:21;;;;;;;7.87;4.77;;;10.20;99.90;;;;;;5020986;28;20277;-69
2023/12/31 09:12:47;;;;;;;6.80;4.70;;;10.20;99.90;;;;;;5018227;28;20191;-69
2023/12/31 09:15:13;;;;;;;8.37;6.87;;;10.40;99.90;;;;;;5019389;28;20196;-69
2023/12/31 09:17:38;;;;;;;7.33;6.10;;;10.50;99.90;;;;;;5021194;28;20185;-69
2023/12/31 09:20:06;;;;;;;10.50;6.90;;;10.50;99.90;;;;;;5011583;28;20802;-68
2023/12/31 09:22:32;;;;;;;8.17;6.33;;;10.50;99.90;;;;;;5015662;28;20242;-69
2023/12/31 09:24:58;;;;;;;8.33;6.40;;;10.60;99.90;;;;;;5018107;28;21802;-69
2023/12/31 09:27:24;;;;;;;9.57;6.80;;;10.60;99.90;;;;;;5020082;28;20411;-69
2023/12/31 09:29:50;;;;;;;7.17;5.57;;;10.60;99.90;;;;;;5012586;28;20185;-69
2023/12/31 09:32:16;;;;;;;8.37;6.53;;;10.70;99.90;;;;;;5011685;28;20463;-70
2023/12/31 09:34:42;;;;;;;6.83;5.70;;;10.70;99.90;;;;;;5012838;28;20212;-69
2023/12/31 09:37:08;;;;;;;6.97;6.10;;;10.80;99.90;;;;;;5012854;28;20193;-68
2023/12/31 09:39:33;;;;;;;8.60;6.17;;;10.80;99.90;;;;;;5022427;28;20196;-68
2023/12/31 09:42:12;;;;;;;8.83;6.63;;;10.90;99.90;;;;;;5016304;28;20858;-69
2023/12/31 09:44:42;;;;;;;9.00;7.50;;;10.90;99.90;;;;;;5015825;28;20203;-68
2023/12/31 09:47:10;;;;;;;8.87;7.00;;;11.00;99.90;;;;;;5009761;28;20440;-69
2023/12/31 09:49:36;;;;;;;10.87;7.33;;;11.00;99.90;;;;;;5017480;28;20475;-69
2023/12/31 09:52:04;;;;;;;9.77;7.33;;;11.10;99.90;;;;;;5010667;28;20506;-69
2023/12/31 09:54:32;;;;;;;10.97;7.97;;;11.20;99.90;;;;;;5019866;28;20459;-69
2023/12/31 09:56:58;;;;;;;11.73;7.73;;;11.20;99.90;;;;;;5019598;28;20881;-68
2023/12/31 09:59:28;;;;;;;11.33;8.47;;;11.30;99.90;;;;;;5013766;28;20419;-69
2023/12/31 10:01:58;;;;;;;13.20;7.90;;;11.30;99.90;;;;;;5010855;28;20486;-70
2023/12/31 10:04:24;;;;;;;10.30;8.10;;;11.40;99.90;;;;;;5019390;28;20446;-70
2023/12/31 10:06:51;;;;;;;11.60;7.87;;;11.40;99.90;;;;;;5022109;28;20497;-70
2023/12/31 10:09:18;;;;;;;11.33;7.67;;;11.50;99.90;;;;;;5023862;28;20444;-70
2023/12/31 10:11:45;;;;;;;11.10;7.70;;;11.40;99.90;;;;;;5019772;28;20463;-69
2023/12/31 10:14:12;;;;;;;8.40;6.90;;;11.50;99.90;;;;;;5017433;28;20438;-70
2023/12/31 10:16:43;;;;;;;11.37;7.07;;;11.50;99.90;;;;;;5024291;28;20838;-68
2023/12/31 10:19:11;;;;;;;12.57;6.80;;;11.60;99.90;;;;;;5018781;28;20439;-69
2023/12/31 10:21:38;;;;;;;6.63;5.20;;;11.60;99.90;;;;;;5020764;28;20430;-69
2023/12/31 10:24:04;;;;;;;6.60;5.50;;;11.60;99.90;;;;;;5017344;28;20461;-69
2023/12/31 10:26:30;;;;;;;7.40;5.20;;;11.60;99.90;;;;;;5020756;28;20424;-70
2023/12/31 10:28:55;;;;;;;7.83;5.23;;;11.60;99.90;;;;;;5023210;28;20603;-69
2023/12/31 10:31:25;;;;;;;7.53;5.50;;;11.60;99.90;;;;;;5021854;28;20216;-70
2023/12/31 10:33:50;;;;;;;8.30;6.50;;;11.30;99.90;;;;;;5016353;28;20195;-70
2023/12/31 10:36:22;;;;;;;8.30;5.70;;;11.10;99.90;;;;;;5013628;28;20461;-70
2023/12/31 10:38:49;;;;;;;8.17;5.20;;;10.90;99.90;;;;;;5011088;28;20189;-70
2023/12/31 10:41:24;;;;;;;6.83;5.00;;;10.50;99.90;;;;;;5009924;28;20435;-69
2023/12/31 10:43:50;;;;;;;6.70;5.60;;;10.40;99.90;;;;;;5017700;28;20445;-69
2023/12/31 10:46:20;;;;;;;6.57;5.47;;;10.20;99.90;;;;;;5017086;28;20439;-70
2023/12/31 10:48:50;;;;;;;7.27;5.27;;;10.10;99.90;;;;;;5017523;28;20428;-70
2023/12/31 10:51:26;;;;;;;8.40;5.30;;;10.00;99.90;;;;;;5017473;28;21051;-70
2023/12/31 10:53:57;;;;;;;9.30;5.97;;;9.90;99.90;;;;;;5016680;28;20547;-70
2023/12/31 10:56:24;;;;;;;5.63;4.10;;;9.80;99.90;;;;;;5011786;28;20567;-70
2023/12/31 10:58:54;;;;;;;7.37;5.90;;;9.70;99.90;;;;;;5014695;28;20806;-69
2023/12/31 11:01:21;;;;;;;5.73;5.07;;;9.60;99.90;;;;;;5013040;28;20854;-69
2023/12/31 11:03:48;;;;;;;7.63;5.43;;;9.50;99.90;;;;;;5017644;28;20490;-69
2023/12/31 11:06:16;;;;;;;7.00;5.17;;;9.60;99.90;;;;;;5011436;28;20995;-70
2023/12/31 11:08:44;;;;;;;6.13;5.50;;;9.60;99.90;;;;;;5013269;28;20753;-69
2023/12/31 11:11:10;;;;;;;7.30;5.20;;;9.70;99.90;;;;;;5011574;28;20460;-70
2023/12/31 11:13:40;;;;;;;6.50;5.37;;;9.70;99.90;;;;;;5010426;28;20489;-69
2023/12/31 11:16:18;;;;;;;5.70;4.80;;;9.80;99.90;;;;;;5011319;28;20511;-70
2023/12/31 11:19:07;;;;;;;5.90;4.27;;;9.90;99.90;;;;;;5009814;28;20443;-70
2023/12/31 11:22:04;;;;;;;9.57;5.93;;;9.90;99.90;;;;;;5014447;28;20432;-70
2023/12/31 11:24:30;;;;;;;6.17;4.50;;;9.80;99.90;;;;;;5022341;28;21355;-71
2023/12/31 11:27:19;;;;;;;6.70;4.90;;;9.90;99.90;;;;;;5021557;28;20465;-71
2023/12/31 11:29:46;;;;;;;6.60;4.00;;;10.00;99.90;;;;;;5007674;28;20185;-70
2023/12/31 11:32:11;;;;;;;6.03;4.03;;;10.00;99.90;;;;;;5008447;28;20529;-69
2023/12/31 11:34:39;;;;;;;4.70;3.37;;;9.90;99.90;;;;;;5025303;28;20444;-70
2023/12/31 11:37:06;;;;;;;4.77;3.07;;;10.00;99.90;;;;;;5019041;28;20184;-71
2023/12/31 11:39:32;;;;;;;5.37;3.17;;;10.10;99.90;;;;;;5016582;28;20451;-71
2023/12/31 11:42:12;;;;;;;8.20;3.33;;;10.10;99.90;;;;;;5019830;28;20436;-70
2023/12/31 11:44:44;;;;;;;5.10;2.43;;;10.10;99.90;;;;;;5015029;28;20295;-71
2023/12/31 11:47:25;;;;;;;3.70;2.80;;;10.10;99.90;;;;;;5014833;28;20530;-70
2023/12/31 11:50:19;;;;;;;4.53;2.93;;;10.10;99.90;;;;;;5015631;28;20431;-71
2023/12/31 11:52:48;;;;;;;4.40;3.17;;;10.10;99.90;;;;;;5017121;28;20439;-70
2023/12/31 11:55:17;;;;;;;5.93;3.00;;;10.10;99.90;;;;;;5017567;28;20432;-71
2023/12/31 11:57:48;;;;;;;5.63;3.53;;;10.00;99.90;;;;;;5014099;28;20411;-70
2023/12/31 12:00:14;;;;;;;4.03;3.30;;;9.90;99.90;;;;;;5014772;28;21019;-72
2023/12/31 12:02:39;;;;;;;3.50;2.57;;;10.00;99.90;;;;;;5018639;28;20502;-71
2023/12/31 12:05:05;;;;;;;4.53;2.90;;;10.10;99.90;;;;;;5019804;28;20207;-70
2023/12/31 12:07:31;;;;;;;4.07;3.00;;;10.00;99.90;;;;;;5025450;28;20169;-70
2023/12/31 12:09:57;;;;;;;4.17;2.80;;;10.00;99.90;;;;;;5015739;28;20449;-70
2023/12/31 12:12:22;;;;;;;3.40;2.30;;;10.10;99.90;;;;;;5019886;28;20308;-70
2023/12/31 12:14:51;;;;;;;3.20;2.10;;;10.10;99.90;;;;;;5022567;28;20228;-70
2023/12/31 12:17:17;;;;;;;3.67;2.50;;;10.00;99.90;;;;;;5019881;28;20593;-70
2023/12/31 12:19:43;;;;;;;4.67;3.17;;;10.00;99.90;;;;;;5023315;28;20434;-69
2023/12/31 12:22:08;;;;;;;3.10;2.30;;;9.90;99.90;;;;;;5019656;28;20216;-69
2023/12/31 12:24:35;;;;;;;2.77;2.00;;;10.00;99.90;;;;;;5024733;28;20512;-70
2023/12/31 12:27:01;;;;;;;3.23;2.00;;;10.00;99.90;;;;;;5020544;28;20242;-69
2023/12/31 12:29:27;;;;;;;2.90;2.00;;;10.00;99.90;;;;;;5020311;28;20477;-70
2023/12/31 12:31:52;;;;;;;4.50;2.50;;;9.90;99.90;;;;;;5022218;28;20495;-69
2023/12/31 12:34:18;;;;;;;3.30;2.50;;;10.00;99.90;;;;;;5023785;28;20501;-70
2023/12/31 12:36:46;;;;;;;3.10;1.87;;;9.90;99.90;;;;;;5027187;28;20670;-71
2023/12/31 12:39:22;;;;;;;4.93;2.30;;;9.90;99.90;;;;;;5012032;28;20683;-70
2023/12/31 12:41:49;;;;;;;2.60;1.53;;;9.80;99.90;;;;;;5016473;28;20442;-71
2023/12/31 12:44:15;;;;;;;2.70;1.50;;;9.90;99.90;;;;;;5009664;28;20451;-70
2023/12/31 12:46:42;;;;;;;3.50;1.20;;;9.90;99.90;;;;;;5013544;28;20925;-71
2023/12/31 12:49:09;;;;;;;2.50;1.60;;;9.90;99.90;;;;;;5020589;28;20907;-70